Aérodrome :
LOGIN :

S'inscrire | Disclaimer

   EN    FR    IT 

 










Légende :    VFR   VFR Marginal   IFR   IFR Intensif   IFR Très Intensif
Visi : 
Plafond : 
>= 8 km
>= 3000ft
5 à 8 km
1000 à 3000 ft
1500m à 5 km
500 à 1000 ft
800 à 1500m
200 à 500 ft
< 800m
< 200 ft
Symboles :   Orages  Brouillard  Fortes neiges  Fortes précipitations  Vent > 20 kt
SIGMETs :   Divers  Orages  Givrage  Turbulence  Onde Orograph.  Cendres Volcan.







- Altitude de l'aérodrome : 348 ft
- Code IATA : STN
- Voir les cartes d'approche


EGSS - London Stansted

DERNIER METAR :
  • 190820Z AUTO 05007KT 020V090 9999 NCD 14/08 Q1029

METARs EXPIRÉS :
  • 190750Z AUTO 06008KT 9999 NCD 13/08 Q1028
  • 190720Z AUTO 03007KT 9999 NCD 12/07 Q1028
  • 190650Z AUTO 03006KT 9000 NCD 10/07 Q1028
  • 190620Z AUTO 02004KT 7000 NCD 08/06 Q1028
  • 190550Z AUTO 35003KT 6000 NCD 07/05 Q1028
  • 190520Z AUTO 01004KT 5000 HZ NCD 05/04 Q1027

TAF AMD TAF EGSS
Valide du 19 à 06h jusqu'au 20 à 12h UTC


190632Z 1906/2012 01006KT 7000 NSC
BECMG 1907/1910 07010KT CAVOK
BECMG 1919/1922 01008KT
TEMPO 1921/2003 8000
BECMG 2003/2006 6000
PROB40 2003/2007 2000 BR MIFG
BECMG 2007/2009 CAVOK
ATIS : +44 1279 669 325
Pas de NOTAMs connus pour ce terrain.



MET'MAP, la Météo Aéronautique d'un coup d'oeil ! - Copyright ORBIFLY Décembre 2007 - Disclaimer

ORBIFLY MET'MAP TEAM :

Programmation & Développement : Alexandra Zaïnal
Conception & Développement : Baudouin d'Aumeries
Co-Programmation & Développement : Marc-Olivier Méhu
Soutien technique & logistique : Manuel Goepfert

Contact : metmap@orbifly.com




SOURCES & CREDITS :

   NOAA